Weather at Miami International Airport

Public forecast

Using degrees Fahrenheit for public forecast. Weather courtesy of forecast.io.

Current aviation weather report (METAR) for Miami International Airport

Retrieved 2021/11/27 13:53 UTC (41 minutes ago):

KMIA 271353Z 35005KT 10SM FEW040 FEW250 21/16 A3009 RMK AO2 SLP190 T02060161

Aviation forecast (TAF) for Miami International Airport

Retrieved 2021/11/27 12:22 UTC (2 hours ago):

TAF KMIA 271120Z 2712/2818 VRB04KT P6SM FEW250 FM271500 33006KT P6SM SCT035 FM271900 04008KT P6SM FEW030 SCT050 FM280100 VRB03KT P6SM FEW035 FM281600 31006KT P6SM FEW040